Electron Alley

Oops — I Never Saw It Do That Before . . . .

Archive for October 2011

Erie Effects: August, 2011 – Wx Log

leave a comment »

August 1

8:53 AM Temp-78.1 °F Dew Pt.-68.0 °F 71% 30.02 in 10.0 mi WSW 6.9 mph – N/A Clear

METAR KLPR 011253Z AUTO 25006KT 10SM CLR 26/20 A3004 RMK AO2 SLP165 T02560200

Sunrise: 6:22am; Sunset: 8:47pm; Moonrise: 8:40am; Moonset: 9:38pm; Day length: 14h 25m

August 2

8:53 AM Temp-79.0 °F Dew Pt-72.0 °F 79% 29.91 in 9.0 mi WSW 4.6 mph – N/A Clear

Sunrise: 6:23am; Sunset: 8:46pm; Moonrise: 9:53am; Moonset: 10:08pm; Day length: 14h 23m

August 3

8:26 AM Temp-73.4 °F Dew Pt.-69.8 °F 88% 29.69 in 2.5 mi SW 5.8 mph – 0.02 in Rain Light Rain

SPECI KLPR 031226Z AUTO 22005KT 2 1/2SM -RA BR BKN030 OVC036 23/21 A2969 RMK AO2 P0002

Sunrise: 6:24am; Sunset: 8:45pm; Moonrise: 11:07am; Moonset: 10:38pm; Day length: 14h 20m

August 4

8:53 AM Temp-75.9 °F Dew Pt.-66.9 °F 74% 29.90 in 10.0 mi North 4.6 mph – N/A Partly Cloudy

METAR KLPR 041253Z AUTO 01004KT 10SM FEW055 24/19 A2992 RMK AO2 SLP125 T02440194

Sunrise: 6:25am; Sunset: 8:44pm; Moonrise: 12:20pm; Moonset: 11:11pm; Day length: 14h 18m

August 5

8:53 AM Temp75.0 °F Dew Pt.-69.1 °F 82% 30.00 in 10.0 mi Calm Calm – N/A Partly Cloudy

METAR KLPR 051253Z AUTO 00000KT 10SM FEW070 24/21 A3002 RMK AO2 SLP159 T02390206

Sunrise: 6:26am; Sunset: 8:43pm; Moonrise: 1:33pm; Moonset: 11:48pm; Day length: 14h 16m

August 6

8:53 AM Temp-78.1 °F Dew Pt.-70.0 °F 76% 29.90 in 9.0 mi SW 3.5 mph – N/A Clear

METAR KLPR 061253Z AUTO 23003KT 9SM CLR 26/21 A2992 RMK AO2 SLP124 T02560211

Sunrise: 6:27am; Sunset: 8:41pm; Moonrise: 2:44pm; Moonset: none; First Qtr: 6:09am; Day length: 14h 14m

August 7

8:29 AM Temp-75.2 °F Dew Pt.-71.6 °F 89% 29.78 in 4.0 mi WNW 6.9 mph – N/A Partly Cloudy

SPECI KLPR 071229Z AUTO 29006KT 4SM BR FEW008 24/22 A2978 RMK AO2

Sunrise: 6:28am; Sunset: 8:40pm; Moonrise: 3:52pm; Moonset: 12:30am; Day length: 14h 12m

August 8

8:48 AM Temp-73.4 °F Dew Pt-69.8 °F 88% 29.74 in 6.0 mi West 3.5 mph – N/A Overcast

SPECI KLPR 081248Z AUTO 27003KT 6SM BR SCT004 BKN016 OVC050 23/21 A2974 RMK AO2

Sunrise: 6:29am; Sunset: 8:39pm; Moonrise: 4:54pm; Moonset: 1:19am; Day length: 14h 9m

August 9

8:22 AM Temp-69.8 °F Dew Pt.-66.2 °F 88% 29.60 in 10.0 mi West 8.1 mph – N/A Overcast

SPECI KLPR 091222Z AUTO 27007KT 10SM SCT008 BKN055 OVC080 21/19 A2960 RMK AO2

Sunrise: 6:30am; Sunset: 8:38pm; Moonrise: 5:47pm; Moonset: 2:14am; Day length: 14h 7m

August 10

8:53 AM Temp-69.1 °F Dew Pt.-62.1 °F 78% 29.71 in 10.0 mi West 8.1 mph – N/A Clear

METAR KLPR 101253Z AUTO 26007KT 10SM CLR 21/17 A2972 RMK AO2 SLP059 T02060167

Sunrise: 6:31am; Sunset: 8:36pm; Moonrise: 6:33pm; Moonset: 3:15am; Day length: 14h 5m

August 11

8:53 AM Temp-68.0 °F Dew Pt.-59.0 °F 73% 29.95 in 10.0 mi SW 3.5 mph – N/A Clear

METAR KLPR 111253Z AUTO 23003KT 10SM CLR 20/15 A2996 RMK AO2 SLP141 T02000150

Sunrise: 6:32am; Sunset: 8:35pm; Moonrise: 7:11pm; Moonset: 4:19am; Day length: 14h 3m

August 12

8:53 AM Temp-64.9 °F Dew Pt.-55.0 °F 70% 30.08 in 10.0 mi SSW 3.5 mph – N/A Clear

METAR KLPR 121253Z AUTO 20003KT 10SM CLR 18/13 A3009 RMK AO2 SLP185 T01830128

Sunrise: 6:33am; Sunset: 8:34pm; Moonrise: 7:44pm; Moonset: 5:24am; Day length: 14h 0m

August 13

8:53 AM Temp-68.0 °F Dew Pt.-59.0 °F 73% 29.97 in 10.0 mi SW 5.8 mph – N/A Clear

METAR KLPR 131253Z AUTO 22005KT 10SM CLR 20/15 A2998 RMK AO2 SLP147 T02000150

Sunrise: 6:34am; Sunset: 8:32pm; Moonrise: 8:12pm; Moonset: 6:28am; Full Moon: 1:59pm; Day length: 13h 58m

August 14

8:31 AM Temp-66.2 °F Dew Pt.-64.4 °F 94% 29.84 in 4.0 mi Calm Calm – 0.00 in Rain Light Rain

SPECI KLPR 141231Z AUTO 00000KT 4SM -RA BR BKN017 OVC110 19/18 A2984 RMK AO2 RAB31 P0000

Sunrise: 6:36am; Sunset: 8:31pm; Moonrise: 8:38pm; Moonset: 7:31am; Day length: 13h 55m

August 15

8:53 AM Temp-71.1 °F Dew Pt.-66.0 °F 84% 29.86 in 10.0 mi North 10.4 mph – N/A Mostly Cloudy

METAR KLPR 151253Z AUTO 36009KT 10SM SCT012 SCT018 BKN065 22/19 A2987 RMK AO2 LTG DSNT E SLP109 T02170189

Sunrise: 6:37am; Sunset: 8:30pm; Moonrise: 9:02pm; Moonset: 8:32am; Day length: 13h 53m

August 16

8:53 AM Temp-71.1 °F Dew Pt.-60.1 °F 68% 30.04 in 10.0 mi North 4.6 mph – N/A Clear

METAR KLPR 161253Z AUTO 01004KT 10SM CLR 22/16 A3006 RMK AO2 SLP172 T02170156

Sunrise: 6:38am; Sunset: 8:28pm; Moonrise: 9:27pm; Moonset: 9:31am; Day length: 13h 51m

August 17

8:53 PM Temp-72.0 °F Dew Pt.-66.0 °F 81% 30.04 in 10.0 mi Calm Calm – N/A Clear

METAR KLPR 180053Z AUTO 00000KT 10SM CLR 22/19 A3005 RMK AO2 SLP172 T02220189

Sunrise: 6:39am; Sunset: 8:27pm; Moonrise: 9:52pm; Moonset: 10:30am; Day length: 13h 48m

August 18

8:53 AM Temp-70.0 °F Dew Pt.-64.0 °F 81% 30.03 in 8.0 mi SW 3.5 mph – N/A Clear

METAR KLPR 181253Z AUTO 23003KT 8SM CLR 21/18 A3005 RMK AO2 SLP169 T02110178

Sunrise: 6:40am; Sunset: 8:25pm; Moonrise: 10:18pm; Moonset: 11:29am; Day length: 13h 46m

August 19

8:34 AM Temp-69.8 °F Dew Pt.-66.2 °F 88% 29.93 in 3.0 mi West 3.5 mph – N/A Clear

SPECI KLPR 191234Z AUTO 27003KT 3SM BR CLR 21/19 A2993 RMK AO2

Sunrise: 6:41am; Sunset: 8:24pm; Moonrise: 10:48pm; Moonset: 12:29pm; Day length: 13h 43m

August 20

8:53 AM Temp-69.1 °F Dew Pt.-62.1 °F 78% 30.01 in 6.0 mi SSW 3.5 mph – N/A Haze

METAR KLPR 201253Z AUTO 20003KT 6SM HZ CLR 21/17 A3001 RMK AO2 SLP160 T02060167

Sunrise: 6:42am; Sunset: 8:22pm; Moonrise: 11:22pm; Moonset: 1:28pm; Day length: 13h 41m

August 21

8:53 AM Temp-70.0 °F Dew Pt.-66.9 °F 90% 29.92 in 5.0 mi West 3.5 mph – 0.02 in Mostly Cloudy

METAR KLPR 211253Z AUTO 26003KT 5SM BR SCT031 BKN110 21/19 A2993 RMK AO2 RAB31E51 SLP131 P0002 T02110194

Sunrise: 6:43am; Sunset: 8:21pm; Moonrise: none; Moonset: 2:26pm; Last Qtr: 4:56pm; Day length: 13h 38m

August 22

8:53 PM Temp-63.0 °F Dew Pt.-57.9 °F 84% 30.03 in 10.0 mi Calm Calm – N/A Clear

METAR KLPR 230053Z AUTO 00000KT 10SM CLR 17/14 A3003 RMK AO2 SLP167 T01720144

Sunrise: 6:44am; Sunset: 8:19pm; Moonrise: 12:02am; Moonset: 3:23pm; Day length: 13h 36m

August 23

7:53 AM Temp-61.0 °F Dew Pt.-54.0 °F 78% 30.05 in 10.0 mi SSW 3.5 mph – N/A Clear

METAR KLPR 231153Z AUTO 20003KT 10SM CLR 16/12 A3005 RMK AO2 SLP174 T01610122 10161 20133 50000 $

Sunrise: 6:45am; Sunset: 8:18pm; Moonrise: 12:48am; Moonset: 4:17pm; Day length: 13h 33m

August 24

8:53 AM Temp-66.9 °F Dew Pt.-62.1 °F 84% 29.83 in 10.0 mi SSW 15.0 mph 23.0 mph N/A Mostly Cloudy

METAR KLPR 241253Z AUTO 21013G20KT 10SM BKN060 19/17 A2984 RMK AO2 SLP100 T01940167

Sunrise: 6:46am; Sunset: 8:16pm; Moonrise: 1:42am; Moonset: 5:06pm; Day length: 13h 31m

August 25

8:53 AM Temp-71.1 °F Dew Pt.-66.0 °F 84% 29.82 in 10.0 mi WNW 5.8 mph – N/A Clear

METAR KLPR 251253Z AUTO 29005KT 10SM CLR 22/19 A2984 RMK AO2 SLP098 T02170189

Sunrise: 6:47am; Sunset: 8:15pm; Moonrise: 2:43am; Moonset: 5:50pm; Day length: 13h 28m

August 26

8:53 PM Temp-66.0 °F Dew Pt.-62.1 °F 87% 29.97 in 10.0 mi Calm Calm – N/A Clear

METAR KLPR 270053Z AUTO 00000KT 10SM CLR 19/17 A2998 RMK AO2 SLP149 T01890167

Sunrise: 6:48am; Sunset: 8:13pm; Moonrise: 3:51am; Moonset: 6:28pm; Day length: 13h 25m

August 27

8:53 AM Temp-66.9 °F Dew Pt.-64.0 °F 90% 29.91 in 8.0 mi Calm Calm – N/A Clear

METAR KLPR 271253Z AUTO 00000KT 8SM CLR 19/18 A2992 RMK AO2 SLP128 T01940178

Sunrise: 6:49am; Sunset: 8:12pm; Moonrise: 5:02am; Moonset: 7:03pm; Day length: 13h 23m

August 28

7:53 AM Temp-68.0 °F Dew Pt.-64.0 °F 87% 29.74 in 10.0 mi North 12.7 mph 17.3 mph N/A Overcast

METAR KLPR 281153Z AUTO 01011G15KT 10SM BKN011 BKN050 OVC070 20/18 A2975 RMK AO2 SLP070 T02000178 10206 20194 53000

Sunrise: 6:50am; Sunset: 8:10pm; Moonrise: 6:16am; Moonset: 7:36pm; New Moon: 10:05pm; Day length: 13h 20m

August 29

8:53 AM Temp-61.0 °F Dew Pt.-57.0 °F 87% 30.03 in 10.0 mi Calm Calm – N/A Clear

METAR KLPR 291253Z AUTO 00000KT 10SM CLR 16/14 A3004 RMK AO2 SLP169 T01610139

Sunrise: 6:51am; Sunset: 8:08pm; Moonrise: 7:31am; Moonset: 8:07pm; Day length: 13h 18m

August 30

8:53 AM Temp-62.1 °F Dew Pt.-55.0 °F 78% 30.15 in 10.0 mi Calm Calm – N/A Clear

METAR KLPR 301253Z AUTO 00000KT 10SM CLR 17/13 A3016 RMK AO2 SLP209 T01670128

Sunrise: 6:52am; Sunset: 8:07pm; Moonrise: 8:46am; Moonset: 8:38pm; Day length: 13h 15m

August 31

8:53 AM Temp-66.9 °F Dew Pt.-59.0 °F 76% 30.13 in 10.0 mi Calm Calm – N/A Clear

METAR KLPR 311253Z AUTO 00000KT 10SM CLR 19/15 A3014 RMK AO2 SLP201 T01940150

Sunrise: 6:53am; Sunset: 8:05pm; Moonrise: 10:02am; Moonset: 9:11pm; Day length: 13h 12m

 Weather Data from this Great Site